createdAt,value
2017-10-11T00:00:21.552Z,0
2017-10-11T00:01:21.529Z,0
2017-10-11T00:02:21.509Z,0
2017-10-11T00:03:21.162Z,0
2017-10-11T00:04:20.825Z,0
2017-10-11T00:05:21.406Z,0
2017-10-11T00:06:21.442Z,0
2017-10-11T00:07:21.154Z,0
2017-10-11T00:08:21.064Z,0
2017-10-11T00:09:21.062Z,0
2017-10-11T00:10:21.034Z,0
2017-10-11T00:11:20.713Z,0
2017-10-11T00:12:20.984Z,0
2017-10-11T00:13:21.004Z,0
2017-10-11T00:14:20.946Z,0
2017-10-11T00:15:20.944Z,0
2017-10-11T00:16:20.929Z,0
2017-10-11T00:17:20.905Z,0
2017-10-11T00:18:21.195Z,0
2017-10-11T00:19:20.878Z,0
2017-10-11T00:20:20.878Z,0
2017-10-11T00:21:20.502Z,0
2017-10-11T00:22:21.157Z,0
2017-10-11T00:23:20.812Z,0
2017-10-11T00:24:20.494Z,0
2017-10-11T00:25:21.070Z,0
2017-10-11T00:26:20.814Z,0
2017-10-11T00:27:20.442Z,0
2017-10-11T00:28:20.717Z,0
2017-10-11T00:29:20.705Z,0
2017-10-11T00:30:20.361Z,0
2017-10-11T00:31:20.116Z,0
2017-10-11T00:32:20.967Z,0
2017-10-11T00:33:20.632Z,0
2017-10-11T00:34:20.590Z,0
2017-10-11T00:35:20.242Z,0
2017-10-11T00:36:20.611Z,0
2017-10-11T00:37:20.870Z,0
2017-10-11T00:38:20.185Z,0
2017-10-11T00:39:20.204Z,0
2017-10-11T00:40:20.193Z,0
2017-10-11T00:41:20.754Z,0
2017-10-11T00:42:20.463Z,0
2017-10-11T00:43:20.474Z,0
2017-10-11T00:44:20.581Z,0
2017-10-11T00:45:20.711Z,0
2017-10-11T00:46:20.380Z,0
2017-10-11T00:47:20.338Z,0
2017-10-11T00:48:20.671Z,0
2017-10-11T00:49:20.659Z,0
2017-10-11T00:50:20.320Z,0
2017-10-11T00:51:20.279Z,0
2017-10-11T00:52:20.324Z,0
2017-10-11T00:53:20.589Z,0
2017-10-11T00:54:20.699Z,0
2017-10-11T00:55:19.895Z,0
2017-10-11T00:56:19.870Z,0
2017-10-11T00:57:19.854Z,0
2017-10-11T00:58:19.824Z,0
2017-10-11T00:59:19.824Z,0
2017-10-11T01:00:20.551Z,0
2017-10-11T01:01:20.531Z,0
2017-10-11T01:02:20.514Z,0
2017-10-11T01:03:19.418Z,0
2017-10-11T01:04:20.051Z,0
2017-10-11T01:05:19.068Z,0
2017-10-11T01:06:19.686Z,0
2017-10-11T01:07:20.034Z,0
2017-10-11T01:08:20.123Z,0
2017-10-11T01:09:20.061Z,0
2017-10-11T01:10:19.292Z,0
2017-10-11T01:11:19.840Z,0
2017-10-11T01:12:19.264Z,0
2017-10-11T01:13:19.921Z,0
2017-10-11T01:14:20.240Z,0
2017-10-11T01:15:19.864Z,0
2017-10-11T01:16:20.220Z,0
2017-10-11T01:17:19.804Z,0
2017-10-11T01:18:19.469Z,0
2017-10-11T01:19:20.105Z,0
2017-10-11T01:20:19.107Z,0
2017-10-11T01:21:19.437Z,0
2017-10-11T01:22:19.717Z,0
2017-10-11T01:23:19.700Z,0
2017-10-11T01:24:20.001Z,0
2017-10-11T01:25:19.351Z,0
2017-10-11T01:26:19.820Z,0
2017-10-11T01:27:19.959Z,0
2017-10-11T01:28:19.609Z,0
2017-10-11T01:29:19.261Z,0
2017-10-11T01:30:19.262Z,0
2017-10-11T01:31:19.247Z,0
2017-10-11T01:32:18.931Z,0
2017-10-11T01:33:19.221Z,0
2017-10-11T01:34:19.844Z,0
2017-10-11T01:35:19.158Z,0
2017-10-11T01:36:19.468Z,0
2017-10-11T01:37:19.791Z,0
2017-10-11T01:38:19.552Z,0
2017-10-11T01:39:19.082Z,0
2017-10-11T01:40:18.876Z,0
2017-10-11T01:41:19.356Z,0
2017-10-11T01:42:19.675Z,0
2017-10-11T01:43:19.332Z,0
2017-10-11T01:44:19.016Z,0
2017-10-11T01:45:19.313Z,0
2017-10-11T01:46:19.392Z,0
2017-10-11T01:47:18.622Z,0
2017-10-11T01:48:19.257Z,0
2017-10-11T01:49:19.570Z,0
2017-10-11T01:50:18.911Z,0
2017-10-11T01:51:19.190Z,0
2017-10-11T01:52:19.522Z,0
2017-10-11T01:53:19.634Z,0
2017-10-11T01:54:19.173Z,0
2017-10-11T01:55:19.112Z,0
2017-10-11T01:56:19.090Z,0
2017-10-11T01:57:19.418Z,0
2017-10-11T01:58:19.072Z,0
2017-10-11T01:59:19.390Z,0
2017-10-11T02:00:19.037Z,0
2017-10-11T02:01:19.421Z,0
2017-10-11T02:02:19.318Z,0
2017-10-11T02:03:19.301Z,0
2017-10-11T02:04:19.081Z,0
2017-10-11T02:05:18.652Z,0
2017-10-11T02:06:19.097Z,0
2017-10-11T02:07:18.937Z,0
2017-10-11T02:08:19.236Z,0
2017-10-11T02:09:19.177Z,0
2017-10-11T02:10:18.511Z,0
2017-10-11T02:11:19.151Z,0
2017-10-11T02:12:19.136Z,0
2017-10-11T02:13:18.461Z,0
2017-10-11T02:14:18.810Z,0
2017-10-11T02:15:18.521Z,0
2017-10-11T02:16:18.811Z,0
2017-10-11T02:17:19.056Z,0
2017-10-11T02:18:18.712Z,0
2017-10-11T02:19:18.693Z,0
2017-10-11T02:20:18.652Z,0
2017-10-11T02:21:19.046Z,0
2017-10-11T02:22:18.283Z,0
2017-10-11T02:23:18.702Z,0
2017-10-11T02:24:18.576Z,0
2017-10-11T02:25:18.571Z,0
2017-10-11T02:26:18.629Z,0
2017-10-11T02:27:18.622Z,0
2017-10-11T02:28:18.959Z,0
2017-10-11T02:29:18.563Z,0
2017-10-11T02:30:18.479Z,0
2017-10-11T02:31:18.770Z,0
2017-10-11T02:32:18.450Z,0
2017-10-11T02:33:18.765Z,0
2017-10-11T02:34:18.082Z,0
2017-10-11T02:35:18.387Z,0
2017-10-11T02:36:18.686Z,0
2017-10-11T02:37:18.003Z,0
2017-10-11T02:38:18.324Z,0
2017-10-11T02:39:17.986Z,0
2017-10-11T02:40:18.291Z,0
2017-10-11T02:41:17.941Z,0
2017-10-11T02:42:17.900Z,0
2017-10-11T02:43:17.901Z,0
2017-10-11T02:44:18.580Z,0
2017-10-11T02:45:18.217Z,0
2017-10-11T02:46:18.212Z,0
2017-10-11T02:47:17.831Z,0
2017-10-11T02:48:18.515Z,0
2017-10-11T02:49:17.782Z,0
2017-10-11T02:50:18.132Z,0
2017-10-11T02:51:18.136Z,0
2017-10-11T02:52:18.073Z,0
2017-10-11T02:53:17.726Z,0
2017-10-11T02:54:17.701Z,0
2017-10-11T02:55:18.080Z,0
2017-10-11T02:56:17.980Z,0
2017-10-11T02:57:17.652Z,0
2017-10-11T02:58:17.946Z,0
2017-10-11T02:59:17.942Z,0
2017-10-11T03:00:18.002Z,0
2017-10-11T03:01:17.892Z,0
2017-10-11T03:02:17.890Z,0
2017-10-11T03:03:18.182Z,0
2017-10-11T03:04:17.862Z,0
2017-10-11T03:05:17.194Z,0
2017-10-11T03:06:17.812Z,0
2017-10-11T03:07:17.460Z,0
2017-10-11T03:08:18.181Z,0
2017-10-11T03:09:17.418Z,0
2017-10-11T03:10:17.397Z,0
2017-10-11T03:11:17.692Z,0
2017-10-11T03:12:17.685Z,0
2017-10-11T03:13:17.354Z,0
2017-10-11T03:14:18.072Z,0
2017-10-11T03:15:17.302Z,0
2017-10-11T03:16:17.605Z,0
2017-10-11T03:17:17.965Z,0
2017-10-11T03:18:17.270Z,0
2017-10-11T03:19:17.018Z,0
2017-10-11T03:20:18.032Z,0
2017-10-11T03:21:17.170Z,0
2017-10-11T03:22:17.307Z,0
2017-10-11T03:23:17.846Z,0
2017-10-11T03:24:16.837Z,0
2017-10-11T03:25:17.130Z,0
2017-10-11T03:26:17.435Z,0
2017-10-11T03:27:17.089Z,0
2017-10-11T03:28:17.409Z,0
2017-10-11T03:29:17.103Z,0
2017-10-11T03:30:17.120Z,0
2017-10-11T03:31:17.511Z,0
2017-10-11T03:32:17.338Z,0
2017-10-11T03:33:16.669Z,0
2017-10-11T03:34:17.354Z,0
2017-10-11T03:35:17.637Z,0
2017-10-11T03:36:16.989Z,0
2017-10-11T03:37:17.215Z,0
2017-10-11T03:38:16.896Z,0
2017-10-11T03:39:17.254Z,0
2017-10-11T03:40:17.500Z,0
2017-10-11T03:41:16.858Z,0
2017-10-11T03:42:17.480Z,0
2017-10-11T03:43:17.221Z,0
2017-10-11T03:44:17.431Z,0
2017-10-11T03:45:16.783Z,0
2017-10-11T03:46:17.056Z,0
2017-10-11T03:47:16.725Z,0
2017-10-11T03:48:17.471Z,0
2017-10-11T03:49:17.411Z,0
2017-10-11T03:50:16.681Z,0
2017-10-11T03:51:16.647Z,0
2017-10-11T03:52:16.956Z,0
2017-10-11T03:53:17.028Z,0
2017-10-11T03:54:16.928Z,0
2017-10-11T03:55:17.232Z,0
2017-10-11T03:56:17.250Z,0
2017-10-11T03:57:16.863Z,0
2017-10-11T03:58:16.864Z,0
2017-10-11T03:59:16.162Z,0
2017-10-11T04:00:17.128Z,0
2017-10-11T04:01:16.447Z,0
2017-10-11T04:02:16.806Z,0
2017-10-11T04:03:16.795Z,0
2017-10-11T04:04:16.733Z,0
2017-10-11T04:05:17.053Z,0
2017-10-11T04:06:16.695Z,0
2017-10-11T04:07:16.988Z,0
2017-10-11T04:08:16.675Z,0
2017-10-11T04:09:16.985Z,0
2017-10-11T04:10:16.399Z,0
2017-10-11T04:11:16.599Z,0
2017-10-11T04:12:16.898Z,0
2017-10-11T04:13:16.555Z,0
2017-10-11T04:14:16.936Z,0
2017-10-11T04:15:16.865Z,0
2017-10-11T04:16:16.829Z,0
2017-10-11T04:17:16.841Z,0
2017-10-11T04:18:16.792Z,0
2017-10-11T04:19:16.780Z,0
2017-10-11T04:20:16.828Z,0
2017-10-11T04:21:16.759Z,0
2017-10-11T04:22:16.079Z,0
2017-10-11T04:23:16.730Z,0
2017-10-11T04:24:16.665Z,0
2017-10-11T04:25:16.710Z,0
2017-10-11T04:26:15.991Z,0
2017-10-11T04:27:16.311Z,0
2017-10-11T04:28:15.948Z,0
2017-10-11T04:29:16.262Z,0
2017-10-11T04:30:16.589Z,0
2017-10-11T04:31:15.911Z,0
2017-10-11T04:32:16.529Z,0
2017-10-11T04:33:16.526Z,0
2017-10-11T04:34:16.163Z,0
2017-10-11T04:35:16.174Z,0
2017-10-11T04:36:16.143Z,0
2017-10-11T04:37:15.787Z,0
2017-10-11T04:38:15.779Z,0
2017-10-11T04:39:15.759Z,0
2017-10-11T04:40:16.504Z,0
2017-10-11T04:41:15.406Z,0
2017-10-11T04:42:16.363Z,0
2017-10-11T04:43:16.007Z,0
2017-10-11T04:44:16.336Z,0
2017-10-11T04:45:16.396Z,0
2017-10-11T04:46:16.042Z,0
2017-10-11T04:47:15.612Z,0
2017-10-11T04:48:15.602Z,0
2017-10-11T04:49:15.892Z,0
2017-10-11T04:50:15.567Z,0
2017-10-11T04:51:15.535Z,0
2017-10-11T04:52:15.553Z,0
2017-10-11T04:53:15.838Z,0
2017-10-11T04:54:15.823Z,0
2017-10-11T04:55:15.812Z,0
2017-10-11T04:56:15.463Z,0
2017-10-11T04:57:15.487Z,0
2017-10-11T04:58:15.780Z,0
2017-10-11T04:59:15.708Z,0
2017-10-11T05:00:15.379Z,0
2017-10-11T05:01:14.711Z,0
2017-10-11T05:02:16.074Z,0
2017-10-11T05:03:15.971Z,0
2017-10-11T05:04:16.041Z,0
2017-10-11T05:05:15.594Z,0
2017-10-11T05:06:15.965Z,0
2017-10-11T05:07:15.884Z,0
2017-10-11T05:08:15.986Z,0
2017-10-11T05:09:15.204Z,0
2017-10-11T05:10:15.528Z,0
2017-10-11T05:11:14.843Z,0
2017-10-11T05:12:15.159Z,0
2017-10-11T05:13:15.463Z,0
2017-10-11T05:14:15.484Z,0
2017-10-11T05:15:15.732Z,0
2017-10-11T05:16:15.752Z,0
2017-10-11T05:17:15.805Z,0
2017-10-11T05:18:15.684Z,0
2017-10-11T05:19:15.033Z,0
2017-10-11T05:20:15.381Z,0
2017-10-11T05:21:15.669Z,0
2017-10-11T05:22:15.305Z,0
2017-10-11T05:23:14.944Z,0
2017-10-11T05:24:15.251Z,0
2017-10-11T05:25:15.566Z,0
2017-10-11T05:26:15.636Z,0
2017-10-11T05:27:15.227Z,0
2017-10-11T05:28:14.560Z,0
2017-10-11T05:29:14.841Z,0
2017-10-11T05:30:14.823Z,0
2017-10-11T05:31:14.807Z,0
2017-10-11T05:32:14.784Z,0
2017-10-11T05:33:14.762Z,0
2017-10-11T05:34:15.085Z,0
2017-10-11T05:35:15.052Z,0
2017-10-11T05:36:14.369Z,0
2017-10-11T05:37:15.014Z,0
2017-10-11T05:38:14.995Z,0
2017-10-11T05:39:14.979Z,0
2017-10-11T05:40:14.693Z,0
2017-10-11T05:41:15.393Z,0
2017-10-11T05:42:14.946Z,0
2017-10-11T05:43:14.592Z,0
2017-10-11T05:44:14.911Z,0
2017-10-11T05:45:14.202Z,0
2017-10-11T05:46:14.846Z,0
2017-10-11T05:47:15.216Z,0
2017-10-11T05:48:15.134Z,0
2017-10-11T05:49:14.792Z,0
2017-10-11T05:50:14.436Z,0
2017-10-11T05:51:14.443Z,0
2017-10-11T05:52:15.071Z,0
2017-10-11T05:53:15.022Z,0
2017-10-11T05:54:14.684Z,0
2017-10-11T05:55:14.671Z,0
2017-10-11T05:56:14.378Z,0
2017-10-11T05:57:14.649Z,0
2017-10-11T05:58:14.303Z,0
2017-10-11T05:59:14.599Z,0
2017-10-11T06:00:14.920Z,0
2017-10-11T06:01:14.619Z,0
2017-10-11T06:02:14.242Z,0
2017-10-11T06:03:13.884Z,0
2017-10-11T06:04:14.183Z,0
2017-10-11T06:05:14.483Z,0
2017-10-11T06:06:14.452Z,0
2017-10-11T06:07:14.452Z,0
2017-10-11T06:08:14.767Z,5
2017-10-11T06:09:14.413Z,5
2017-10-11T06:10:14.070Z,5
2017-10-11T06:11:14.730Z,5
2017-10-11T06:12:14.701Z,5
2017-10-11T06:13:14.333Z,5
2017-10-11T06:14:14.369Z,5
2017-10-11T06:15:13.991Z,5
2017-10-11T06:16:14.302Z,5
2017-10-11T06:17:14.284Z,5
2017-10-11T06:18:14.594Z,5
2017-10-11T06:19:13.882Z,5
2017-10-11T06:20:13.876Z,5
2017-10-11T06:21:14.532Z,5
2017-10-11T06:22:14.543Z,5
2017-10-11T06:23:14.506Z,5
2017-10-11T06:24:14.466Z,5
2017-10-11T06:25:14.435Z,5
2017-10-11T06:26:14.431Z,5
2017-10-11T06:27:14.388Z,5
2017-10-11T06:28:14.071Z,5
2017-10-11T06:29:13.737Z,5
2017-10-11T06:30:14.054Z,5
2017-10-11T06:31:14.348Z,5
2017-10-11T06:32:14.311Z,5
2017-10-11T06:33:13.987Z,5
2017-10-11T06:34:13.978Z,5
2017-10-11T06:35:14.263Z,5
2017-10-11T06:36:13.900Z,5
2017-10-11T06:37:13.576Z,5
2017-10-11T06:38:14.221Z,5
2017-10-11T06:39:14.198Z,5
2017-10-11T06:40:13.206Z,5
2017-10-11T06:41:13.854Z,5
2017-10-11T06:42:13.857Z,5
2017-10-11T06:43:13.823Z,5
2017-10-11T06:44:13.759Z,5
2017-10-11T06:45:13.733Z,5
2017-10-11T06:46:13.743Z,5
2017-10-11T06:47:14.041Z,5
2017-10-11T06:48:13.701Z,5
2017-10-11T06:49:13.669Z,5
2017-10-11T06:50:13.323Z,5
2017-10-11T06:51:13.671Z,5
2017-10-11T06:52:13.938Z,5
2017-10-11T06:53:14.005Z,10
2017-10-11T06:54:13.928Z,5
2017-10-11T06:55:13.559Z,10
2017-10-11T06:56:13.212Z,10
2017-10-11T06:57:13.532Z,10
2017-10-11T06:58:12.972Z,10
2017-10-11T06:59:13.197Z,15
2017-10-11T07:00:13.814Z,10
2017-10-11T07:01:13.792Z,10
2017-10-11T07:02:13.782Z,15
2017-10-11T07:03:13.093Z,10
2017-10-11T07:04:13.401Z,10
2017-10-11T07:05:13.720Z,10
2017-10-11T07:06:13.366Z,10
2017-10-11T07:07:13.341Z,10
2017-10-11T07:08:13.339Z,10
2017-10-11T07:09:13.301Z,10
2017-10-11T07:10:13.287Z,10
2017-10-11T07:11:13.247Z,15
2017-10-11T07:12:13.252Z,15
2017-10-11T07:13:13.243Z,15
2017-10-11T07:14:12.922Z,15
2017-10-11T07:15:12.931Z,20
2017-10-11T07:16:13.185Z,20
2017-10-11T07:17:13.514Z,20
2017-10-11T07:18:13.184Z,20
2017-10-11T07:19:13.452Z,20
2017-10-11T07:20:13.454Z,20
2017-10-11T07:21:13.150Z,20
2017-10-11T07:22:12.736Z,20
2017-10-11T07:23:12.707Z,20
2017-10-11T07:24:13.345Z,20
2017-10-11T07:25:13.097Z,20
2017-10-11T07:26:13.043Z,20
2017-10-11T07:27:12.974Z,20
2017-10-11T07:28:13.310Z,25
2017-10-11T07:29:13.268Z,25
2017-10-11T07:30:12.941Z,25
2017-10-11T07:31:12.911Z,25
2017-10-11T07:32:12.555Z,25
2017-10-11T07:33:13.189Z,30
2017-10-11T07:34:13.156Z,30
2017-10-11T07:35:12.542Z,30
2017-10-11T07:36:13.441Z,25
2017-10-11T07:37:12.143Z,25
2017-10-11T07:38:13.150Z,25
2017-10-11T07:39:12.494Z,25
2017-10-11T07:40:13.070Z,20
2017-10-11T07:41:12.852Z,20
2017-10-11T07:42:12.741Z,20
2017-10-11T07:43:12.452Z,25
2017-10-11T07:44:12.669Z,25
2017-10-11T07:45:12.652Z,25
2017-10-11T07:46:12.952Z,30
2017-10-11T07:47:12.992Z,35
2017-10-11T07:48:12.278Z,40
2017-10-11T07:49:12.903Z,40
2017-10-11T07:50:12.576Z,35
2017-10-11T07:51:12.528Z,35
2017-10-11T07:52:12.552Z,35
2017-10-11T07:53:12.287Z,30
2017-10-11T07:54:12.490Z,30
2017-10-11T07:55:12.475Z,35
2017-10-11T07:56:12.106Z,35
2017-10-11T07:57:12.109Z,35
2017-10-11T07:58:12.414Z,35
2017-10-11T07:59:12.760Z,35
2017-10-11T08:00:12.045Z,35
2017-10-11T08:01:12.351Z,35
2017-10-11T08:02:12.357Z,35
2017-10-11T08:03:12.324Z,35
2017-10-11T08:04:12.624Z,40
2017-10-11T08:05:12.618Z,40
2017-10-11T08:06:11.950Z,40
2017-10-11T08:07:12.251Z,40
2017-10-11T08:08:11.923Z,35
2017-10-11T08:09:12.208Z,35
2017-10-11T08:10:11.530Z,35
2017-10-11T08:11:12.169Z,35
2017-10-11T08:12:11.876Z,35
2017-10-11T08:13:12.136Z,35
2017-10-11T08:14:12.126Z,35
2017-10-11T08:15:12.470Z,35
2017-10-11T08:16:11.431Z,35
2017-10-11T08:17:12.073Z,35
2017-10-11T08:18:12.060Z,35
2017-10-11T08:19:11.713Z,35
2017-10-11T08:20:12.032Z,35
2017-10-11T08:21:11.372Z,35
2017-10-11T08:22:12.330Z,35
2017-10-11T08:23:11.959Z,40
2017-10-11T08:24:11.946Z,40
2017-10-11T08:25:12.266Z,40
2017-10-11T08:26:12.281Z,40
2017-10-11T08:27:11.907Z,40
2017-10-11T08:28:12.184Z,40
2017-10-11T08:29:11.874Z,40
2017-10-11T08:30:12.159Z,40
2017-10-11T08:31:12.156Z,40
2017-10-11T08:32:12.143Z,40
2017-10-11T08:33:11.790Z,40
2017-10-11T08:34:11.452Z,40
2017-10-11T08:35:12.074Z,35
2017-10-11T08:36:12.066Z,35
2017-10-11T08:37:12.047Z,35
2017-10-11T08:38:12.035Z,40
2017-10-11T08:39:12.025Z,40
2017-10-11T08:40:12.008Z,40
2017-10-11T08:41:11.984Z,40
2017-10-11T08:42:11.985Z,40
2017-10-11T08:43:11.964Z,40
2017-10-11T08:44:11.610Z,40
2017-10-11T08:45:11.573Z,40
2017-10-11T08:46:11.291Z,40
2017-10-11T08:47:11.872Z,40
2017-10-11T08:48:11.851Z,40
2017-10-11T08:49:11.586Z,45
2017-10-11T08:50:11.482Z,45
2017-10-11T08:51:11.476Z,45
2017-10-11T08:52:10.891Z,45
2017-10-11T08:53:11.441Z,50
2017-10-11T08:54:11.414Z,50
2017-10-11T08:55:10.756Z,50
2017-10-11T08:56:10.741Z,55
2017-10-11T08:57:11.715Z,55
2017-10-11T08:58:11.682Z,50
2017-10-11T08:59:11.654Z,50
2017-10-11T09:00:11.645Z,55
2017-10-11T09:01:11.352Z,60
2017-10-11T09:02:11.573Z,55
2017-10-11T09:03:11.250Z,55
2017-10-11T09:04:11.553Z,55
2017-10-11T09:05:11.536Z,50
2017-10-11T09:06:11.543Z,45
2017-10-11T09:07:11.543Z,50
2017-10-11T09:08:10.881Z,45
2017-10-11T09:09:11.481Z,50
2017-10-11T09:10:11.464Z,65
2017-10-11T09:11:11.209Z,80
2017-10-11T09:12:10.786Z,75
2017-10-11T09:13:11.417Z,75
2017-10-11T09:14:11.396Z,70
2017-10-11T09:15:11.403Z,60
2017-10-11T09:16:11.141Z,55
2017-10-11T09:17:10.361Z,55
2017-10-11T09:18:11.012Z,55
2017-10-11T09:19:11.041Z,60
2017-10-11T09:20:10.992Z,65
2017-10-11T09:21:10.984Z,70
2017-10-11T09:22:11.252Z,65
2017-10-11T09:23:10.947Z,60
2017-10-11T09:24:11.334Z,70
2017-10-11T09:25:10.866Z,80
2017-10-11T09:26:10.972Z,80
2017-10-11T09:27:10.845Z,85
2017-10-11T09:28:10.503Z,90
2017-10-11T09:29:10.462Z,110
2017-10-11T09:30:11.143Z,110
2017-10-11T09:31:11.071Z,110
2017-10-11T09:32:11.086Z,90
2017-10-11T09:33:11.067Z,85
2017-10-11T09:34:11.042Z,85
2017-10-11T09:35:10.374Z,90
2017-10-11T09:36:10.622Z,85
2017-10-11T09:37:10.326Z,80
2017-10-11T09:38:10.963Z,80
2017-10-11T09:39:10.324Z,80
2017-10-11T09:40:10.660Z,80
2017-10-11T09:41:10.261Z,80
2017-10-11T09:42:10.247Z,80
2017-10-11T09:43:10.227Z,85
2017-10-11T09:44:10.533Z,80
2017-10-11T09:45:10.191Z,80
2017-10-11T09:46:10.511Z,80
2017-10-11T09:47:10.846Z,85
2017-10-11T09:48:10.582Z,85
2017-10-11T09:49:10.792Z,85
2017-10-11T09:50:10.111Z,80
2017-10-11T09:51:10.531Z,75
2017-10-11T09:52:10.073Z,75
2017-10-11T09:53:10.203Z,75
2017-10-11T09:54:10.727Z,65
2017-10-11T09:55:10.673Z,65
2017-10-11T09:56:09.682Z,60
2017-10-11T09:57:10.687Z,55
2017-10-11T09:58:09.645Z,50
2017-10-11T09:59:10.602Z,45
2017-10-11T10:00:10.309Z,45
2017-10-11T10:01:10.558Z,40
2017-10-11T10:02:10.243Z,40
2017-10-11T10:03:09.922Z,40
2017-10-11T10:04:09.871Z,40
2017-10-11T10:05:10.185Z,40
2017-10-11T10:06:10.634Z,40
2017-10-11T10:07:10.170Z,45
2017-10-11T10:08:10.248Z,40
2017-10-11T10:09:09.807Z,40
2017-10-11T10:10:10.453Z,45
2017-10-11T10:11:10.522Z,45
2017-10-11T10:12:10.392Z,45
2017-10-11T10:13:10.021Z,45
2017-10-11T10:14:10.105Z,45
2017-10-11T10:15:09.709Z,40
2017-10-11T10:16:09.976Z,40
2017-10-11T10:17:09.963Z,45
2017-10-11T10:18:10.310Z,45
2017-10-11T10:19:10.350Z,40
2017-10-11T10:20:09.591Z,45
2017-10-11T10:21:10.352Z,45
2017-10-11T10:22:09.562Z,50
2017-10-11T10:23:09.876Z,45
2017-10-11T10:24:10.214Z,45
2017-10-11T10:25:09.816Z,45
2017-10-11T10:26:10.165Z,45
2017-10-11T10:27:09.568Z,45
2017-10-11T10:28:09.774Z,45
2017-10-11T10:29:09.800Z,45
2017-10-11T10:30:10.061Z,40
2017-10-11T10:31:10.181Z,40
2017-10-11T10:32:10.099Z,40
2017-10-11T10:33:09.686Z,35
2017-10-11T10:34:09.343Z,35
2017-10-11T10:35:09.686Z,35
2017-10-11T10:36:09.631Z,35
2017-10-11T10:37:09.666Z,35
2017-10-11T10:38:10.001Z,35
2017-10-11T10:39:09.575Z,35
2017-10-11T10:40:09.606Z,35
2017-10-11T10:41:09.917Z,40
2017-10-11T10:42:09.955Z,35
2017-10-11T10:43:09.843Z,40
2017-10-11T10:44:09.555Z,40
2017-10-11T10:45:09.545Z,40
2017-10-11T10:46:09.462Z,40
2017-10-11T10:47:09.107Z,50
2017-10-11T10:48:09.790Z,55
2017-10-11T10:49:09.484Z,60
2017-10-11T10:50:08.764Z,60
2017-10-11T10:51:09.778Z,70
2017-10-11T10:52:09.732Z,75
2017-10-11T10:53:09.711Z,75
2017-10-11T10:54:09.674Z,90
2017-10-11T10:55:09.659Z,105
2017-10-11T10:56:09.325Z,115
2017-10-11T10:57:09.271Z,125
2017-10-11T10:58:08.934Z,135
2017-10-11T10:59:09.261Z,150
2017-10-11T11:00:08.910Z,155
2017-10-11T11:01:09.253Z,155
2017-10-11T11:02:08.522Z,155
2017-10-11T11:03:08.830Z,185
2017-10-11T11:04:09.501Z,215
2017-10-11T11:05:09.128Z,210
2017-10-11T11:06:09.469Z,245
2017-10-11T11:07:08.772Z,230
2017-10-11T11:08:09.093Z,215
2017-10-11T11:09:09.386Z,315
2017-10-11T11:10:09.373Z,275
2017-10-11T11:11:09.020Z,275
2017-10-11T11:12:08.989Z,275
2017-10-11T11:13:09.453Z,285
2017-10-11T11:14:09.299Z,265
2017-10-11T11:15:09.405Z,350
2017-10-11T11:16:08.927Z,210
2017-10-11T11:17:08.919Z,160
2017-10-11T11:18:09.261Z,135
2017-10-11T11:19:09.204Z,130
2017-10-11T11:20:08.869Z,125
2017-10-11T11:21:09.209Z,105
2017-10-11T11:22:09.161Z,85
2017-10-11T11:23:08.872Z,80
2017-10-11T11:24:08.813Z,70
2017-10-11T11:25:08.783Z,65
2017-10-11T11:26:08.456Z,65
2017-10-11T11:27:08.746Z,60
2017-10-11T11:28:08.431Z,65
2017-10-11T11:29:08.732Z,60
2017-10-11T11:30:09.041Z,55
2017-10-11T11:31:09.045Z,55
2017-10-11T11:32:08.861Z,55
2017-10-11T11:33:08.667Z,60
2017-10-11T11:34:08.327Z,65
2017-10-11T11:35:08.627Z,70
2017-10-11T11:36:08.282Z,75
2017-10-11T11:37:08.592Z,80
2017-10-11T11:38:08.603Z,80
2017-10-11T11:39:08.575Z,75
2017-10-11T11:40:08.852Z,85
2017-10-11T11:41:08.850Z,85
2017-10-11T11:42:08.840Z,85
2017-10-11T11:43:08.804Z,75
2017-10-11T11:44:07.843Z,65
2017-10-11T11:45:08.457Z,55
2017-10-11T11:46:08.780Z,50
2017-10-11T11:47:08.766Z,45
2017-10-11T11:48:08.438Z,50
2017-10-11T11:49:08.425Z,50
2017-10-11T11:50:08.444Z,50
2017-10-11T11:51:08.375Z,45
2017-10-11T11:52:08.359Z,45
2017-10-11T11:53:08.659Z,45
2017-10-11T11:54:08.328Z,45
2017-10-11T11:55:07.959Z,45
2017-10-11T11:56:08.270Z,40
2017-10-11T11:57:08.287Z,40
2017-10-11T11:58:08.254Z,35
2017-10-11T11:59:08.225Z,30
2017-10-11T12:00:08.543Z,25
2017-10-11T12:01:08.511Z,20
2017-10-11T12:02:08.186Z,20
2017-10-11T12:03:08.492Z,25
2017-10-11T12:04:08.187Z,30
2017-10-11T12:05:08.462Z,30
2017-10-11T12:06:08.451Z,35
2017-10-11T12:07:07.782Z,35
2017-10-11T12:08:08.412Z,30
2017-10-11T12:09:08.071Z,25
2017-10-11T12:10:08.355Z,20
2017-10-11T12:11:08.116Z,20
2017-10-11T12:12:08.333Z,20
2017-10-11T12:13:08.036Z,20
2017-10-11T12:14:08.304Z,20
2017-10-11T12:15:08.292Z,20
2017-10-11T12:16:08.302Z,20
2017-10-11T12:17:07.922Z,20
2017-10-11T12:18:07.909Z,20
2017-10-11T12:19:07.676Z,20
2017-10-11T12:20:07.901Z,20
2017-10-11T12:21:07.824Z,20
2017-10-11T12:22:08.187Z,20
2017-10-11T12:23:07.180Z,20
2017-10-11T12:24:07.464Z,25
2017-10-11T12:25:07.789Z,35
2017-10-11T12:26:08.084Z,30
2017-10-11T12:27:07.183Z,35
2017-10-11T12:28:07.502Z,35
2017-10-11T12:29:07.726Z,40
2017-10-11T12:30:07.793Z,40
2017-10-11T12:31:07.024Z,45
2017-10-11T12:32:07.982Z,50
2017-10-11T12:33:07.633Z,55
2017-10-11T12:34:07.955Z,65
2017-10-11T12:35:07.942Z,65
2017-10-11T12:36:07.696Z,70
2017-10-11T12:37:07.577Z,75
2017-10-11T12:38:07.325Z,75
2017-10-11T12:39:07.870Z,95
2017-10-11T12:40:07.590Z,95
2017-10-11T12:41:07.588Z,105
2017-10-11T12:42:07.566Z,100
2017-10-11T12:43:07.513Z,95
2017-10-11T12:44:07.253Z,90
2017-10-11T12:45:07.771Z,90
2017-10-11T12:46:07.412Z,90
2017-10-11T12:47:07.417Z,95
2017-10-11T12:48:07.386Z,100
2017-10-11T12:49:07.676Z,100
2017-10-11T12:50:07.679Z,100
2017-10-11T12:51:07.345Z,100
2017-10-11T12:52:07.640Z,105
2017-10-11T12:53:07.659Z,110
2017-10-11T12:54:07.614Z,110
2017-10-11T12:55:07.605Z,110
2017-10-11T12:56:07.351Z,110
2017-10-11T12:57:07.558Z,110
2017-10-11T12:58:07.215Z,105
2017-10-11T12:59:06.886Z,100
2017-10-11T13:00:07.527Z,100
2017-10-11T13:01:07.496Z,100
2017-10-11T13:02:07.244Z,105
2017-10-11T13:03:07.151Z,105
2017-10-11T13:04:07.116Z,105
2017-10-11T13:05:07.442Z,100
2017-10-11T13:06:07.075Z,100
2017-10-11T13:07:07.543Z,95
2017-10-11T13:08:07.382Z,95
2017-10-11T13:09:07.116Z,90
2017-10-11T13:10:07.330Z,90
2017-10-11T13:11:07.059Z,90
2017-10-11T13:12:07.306Z,90
2017-10-11T13:13:07.424Z,85
2017-10-11T13:14:07.300Z,85
2017-10-11T13:15:07.001Z,85
2017-10-11T13:16:07.255Z,85
2017-10-11T13:17:07.231Z,85
2017-10-11T13:18:07.225Z,85
2017-10-11T13:19:07.185Z,80
2017-10-11T13:20:07.175Z,80
2017-10-11T13:21:07.168Z,80
2017-10-11T13:22:07.174Z,80
2017-10-11T13:23:06.814Z,80
2017-10-11T13:24:07.097Z,80
2017-10-11T13:25:07.088Z,80
2017-10-11T13:26:06.754Z,80
2017-10-11T13:27:07.034Z,75
2017-10-11T13:28:07.082Z,75
2017-10-11T13:29:06.035Z,75
2017-10-11T13:30:06.661Z,70
2017-10-11T13:31:06.995Z,70
2017-10-11T13:32:06.677Z,70
2017-10-11T13:33:06.976Z,70
2017-10-11T13:34:06.998Z,65
2017-10-11T13:35:06.592Z,70
2017-10-11T13:36:06.679Z,70
2017-10-11T13:37:06.584Z,70
2017-10-11T13:38:07.001Z,70
2017-10-11T13:39:06.846Z,70
2017-10-11T13:40:06.833Z,70
2017-10-11T13:41:06.480Z,70
2017-10-11T13:42:06.804Z,65
2017-10-11T13:43:06.133Z,65
2017-10-11T13:44:06.745Z,65
2017-10-11T13:45:06.770Z,65
2017-10-11T13:46:06.403Z,65
2017-10-11T13:47:06.731Z,65
2017-10-11T13:48:06.393Z,65
2017-10-11T13:49:06.422Z,65
2017-10-11T13:50:06.129Z,65
2017-10-11T13:51:06.336Z,65
2017-10-11T13:52:05.975Z,65
2017-10-11T13:53:06.733Z,60
2017-10-11T13:54:06.274Z,60
2017-10-11T13:55:06.248Z,60
2017-10-11T13:56:06.622Z,60
2017-10-11T13:57:06.228Z,60
2017-10-11T13:58:06.621Z,60
2017-10-11T13:59:06.609Z,60
2017-10-11T14:00:06.542Z,60
2017-10-11T14:01:06.216Z,60
2017-10-11T14:02:06.454Z,60
2017-10-11T14:03:05.796Z,55
2017-10-11T14:04:06.085Z,55
2017-10-11T14:05:06.075Z,50
2017-10-11T14:06:06.467Z,45
2017-10-11T14:07:06.165Z,40
2017-10-11T14:08:06.457Z,40
2017-10-11T14:09:06.013Z,40
2017-10-11T14:10:06.392Z,40
2017-10-11T14:11:06.429Z,35
2017-10-11T14:12:05.965Z,35
2017-10-11T14:13:05.963Z,30
2017-10-11T14:14:05.975Z,30
2017-10-11T14:15:05.906Z,30
2017-10-11T14:16:06.374Z,30
2017-10-11T14:17:06.322Z,30
2017-10-11T14:18:06.305Z,30
2017-10-11T14:19:05.881Z,30
2017-10-11T14:20:06.233Z,25
2017-10-11T14:21:05.810Z,25
2017-10-11T14:22:06.135Z,25
2017-10-11T14:23:05.788Z,25
2017-10-11T14:24:05.776Z,20
2017-10-11T14:25:06.067Z,20
2017-10-11T14:26:05.393Z,20
2017-10-11T14:27:06.103Z,20
2017-10-11T14:28:05.413Z,25